sensor_id;sensor_type;location;lat;lon;timestamp;P1;durP1;ratioP1;P2;durP2;ratioP2
84989;SDS011;75307;53.836;10.476;2024-02-15T00:00:23;24.40;;;8.45;;
84989;SDS011;75307;53.836;10.476;2024-02-15T00:02:27;21.65;;;7.38;;
84989;SDS011;75307;53.836;10.476;2024-02-15T00:04:29;27.30;;;7.72;;
84989;SDS011;75307;53.836;10.476;2024-02-15T00:06:32;21.77;;;7.93;;
84989;SDS011;75307;53.836;10.476;2024-02-15T00:08:33;21.58;;;7.95;;
84989;SDS011;75307;53.836;10.476;2024-02-15T00:10:35;19.45;;;7.47;;
84989;SDS011;75307;53.836;10.476;2024-02-15T00:12:37;19.63;;;7.28;;
84989;SDS011;75307;53.836;10.476;2024-02-15T00:14:39;24.00;;;7.75;;
84989;SDS011;75307;53.836;10.476;2024-02-15T00:16:41;25.90;;;7.88;;
84989;SDS011;75307;53.836;10.476;2024-02-15T00:18:43;17.23;;;5.72;;
84989;SDS011;75307;53.836;10.476;2024-02-15T00:20:45;20.98;;;7.50;;
84989;SDS011;75307;53.836;10.476;2024-02-15T00:22:46;21.17;;;6.55;;
84989;SDS011;75307;53.836;10.476;2024-02-15T00:24:49;18.23;;;7.18;;
84989;SDS011;75307;53.836;10.476;2024-02-15T00:26:51;22.77;;;6.63;;
84989;SDS011;75307;53.836;10.476;2024-02-15T00:28:53;20.75;;;7.20;;
84989;SDS011;75307;53.836;10.476;2024-02-15T00:30:55;17.75;;;5.82;;
84989;SDS011;75307;53.836;10.476;2024-02-15T00:32:58;17.67;;;5.00;;
84989;SDS011;75307;53.836;10.476;2024-02-15T00:35:03;15.52;;;6.00;;
84989;SDS011;75307;53.836;10.476;2024-02-15T00:37:07;17.35;;;6.15;;
84989;SDS011;75307;53.836;10.476;2024-02-15T00:39:09;16.20;;;5.43;;
84989;SDS011;75307;53.836;10.476;2024-02-15T00:41:11;15.65;;;6.00;;
84989;SDS011;75307;53.836;10.476;2024-02-15T00:43:13;17.77;;;4.72;;
84989;SDS011;75307;53.836;10.476;2024-02-15T00:45:15;14.93;;;4.75;;
84989;SDS011;75307;53.836;10.476;2024-02-15T00:47:17;13.48;;;4.05;;
84989;SDS011;75307;53.836;10.476;2024-02-15T00:49:22;15.60;;;5.13;;
84989;SDS011;75307;53.836;10.476;2024-02-15T00:51:26;12.02;;;4.43;;
84989;SDS011;75307;53.836;10.476;2024-02-15T00:53:28;13.40;;;4.75;;
84989;SDS011;75307;53.836;10.476;2024-02-15T00:55:30;13.07;;;4.82;;
84989;SDS011;75307;53.836;10.476;2024-02-15T00:57:32;11.65;;;4.90;;
84989;SDS011;75307;53.836;10.476;2024-02-15T00:59:34;12.70;;;4.75;;
84989;SDS011;75307;53.836;10.476;2024-02-15T01:01:36;9.77;;;4.75;;
84989;SDS011;75307;53.836;10.476;2024-02-15T01:03:38;14.93;;;5.00;;
84989;SDS011;75307;53.836;10.476;2024-02-15T01:05:41;12.52;;;4.78;;
84989;SDS011;75307;53.836;10.476;2024-02-15T01:07:43;13.93;;;4.75;;
84989;SDS011;75307;53.836;10.476;2024-02-15T01:09:44;14.43;;;4.93;;
84989;SDS011;75307;53.836;10.476;2024-02-15T01:11:46;11.20;;;4.05;;
84989;SDS011;75307;53.836;10.476;2024-02-15T01:13:48;15.30;;;4.47;;
84989;SDS011;75307;53.836;10.476;2024-02-15T01:15:50;15.07;;;5.20;;
84989;SDS011;75307;53.836;10.476;2024-02-15T01:17:51;18.60;;;5.82;;
84989;SDS011;75307;53.836;10.476;2024-02-15T01:19:53;13.98;;;4.38;;
84989;SDS011;75307;53.836;10.476;2024-02-15T01:21:55;13.48;;;4.78;;
84989;SDS011;75307;53.836;10.476;2024-02-15T01:23:59;14.20;;;4.80;;
84989;SDS011;75307;53.836;10.476;2024-02-15T01:26:02;15.70;;;5.43;;
84989;SDS011;75307;53.836;10.476;2024-02-15T01:28:05;16.92;;;5.15;;
84989;SDS011;75307;53.836;10.476;2024-02-15T01:30:07;15.40;;;6.03;;
84989;SDS011;75307;53.836;10.476;2024-02-15T01:32:10;13.68;;;5.53;;
84989;SDS011;75307;53.836;10.476;2024-02-15T01:34:12;14.32;;;5.05;;
84989;SDS011;75307;53.836;10.476;2024-02-15T01:36:13;17.90;;;5.72;;
84989;SDS011;75307;53.836;10.476;2024-02-15T01:38:18;15.52;;;5.47;;
84989;SDS011;75307;53.836;10.476;2024-02-15T01:40:19;19.05;;;5.50;;
84989;SDS011;75307;53.836;10.476;2024-02-15T01:42:22;14.25;;;5.40;;
84989;SDS011;75307;53.836;10.476;2024-02-15T01:44:24;18.77;;;6.07;;
84989;SDS011;75307;53.836;10.476;2024-02-15T01:46:26;22.80;;;7.43;;
84989;SDS011;75307;53.836;10.476;2024-02-15T01:48:28;21.50;;;7.07;;
84989;SDS011;75307;53.836;10.476;2024-02-15T01:50:30;21.17;;;6.53;;
84989;SDS011;75307;53.836;10.476;2024-02-15T01:52:33;19.65;;;7.28;;
84989;SDS011;75307;53.836;10.476;2024-02-15T01:54:36;20.25;;;7.60;;
84989;SDS011;75307;53.836;10.476;2024-02-15T01:56:39;23.08;;;6.68;;
84989;SDS011;75307;53.836;10.476;2024-02-15T01:58:40;22.08;;;7.15;;
84989;SDS011;75307;53.836;10.476;2024-02-15T02:00:43;22.67;;;6.25;;
84989;SDS011;75307;53.836;10.476;2024-02-15T02:02:45;18.38;;;7.28;;
84989;SDS011;75307;53.836;10.476;2024-02-15T02:04:47;18.27;;;6.38;;
84989;SDS011;75307;53.836;10.476;2024-02-15T02:06:48;20.67;;;7.10;;
84989;SDS011;75307;53.836;10.476;2024-02-15T02:08:50;18.55;;;6.63;;
84989;SDS011;75307;53.836;10.476;2024-02-15T02:10:53;22.52;;;6.28;;
84989;SDS011;75307;53.836;10.476;2024-02-15T02:12:55;26.40;;;7.60;;
84989;SDS011;75307;53.836;10.476;2024-02-15T02:14:56;20.55;;;7.10;;
84989;SDS011;75307;53.836;10.476;2024-02-15T02:17:10;20.08;;;6.38;;
84989;SDS011;75307;53.836;10.476;2024-02-15T02:19:13;20.92;;;6.40;;
84989;SDS011;75307;53.836;10.476;2024-02-15T02:21:14;20.73;;;7.03;;
84989;SDS011;75307;53.836;10.476;2024-02-15T02:23:16;23.48;;;6.32;;
84989;SDS011;75307;53.836;10.476;2024-02-15T02:25:20;25.15;;;7.75;;
84989;SDS011;75307;53.836;10.476;2024-02-15T02:27:22;23.48;;;7.90;;
84989;SDS011;75307;53.836;10.476;2024-02-15T02:29:25;24.27;;;7.47;;
84989;SDS011;75307;53.836;10.476;2024-02-15T02:31:28;19.80;;;6.63;;
84989;SDS011;75307;53.836;10.476;2024-02-15T02:33:30;26.50;;;7.22;;
84989;SDS011;75307;53.836;10.476;2024-02-15T02:35:32;21.52;;;7.50;;
84989;SDS011;75307;53.836;10.476;2024-02-15T02:37:34;23.10;;;7.82;;
84989;SDS011;75307;53.836;10.476;2024-02-15T02:39:37;24.27;;;6.57;;
84989;SDS011;75307;53.836;10.476;2024-02-15T02:41:40;22.55;;;7.75;;
84989;SDS011;75307;53.836;10.476;2024-02-15T02:43:42;26.17;;;8.52;;
84989;SDS011;75307;53.836;10.476;2024-02-15T02:45:43;23.45;;;6.80;;
84989;SDS011;75307;53.836;10.476;2024-02-15T02:47:45;23.90;;;7.15;;
84989;SDS011;75307;53.836;10.476;2024-02-15T02:49:48;21.23;;;7.25;;
84989;SDS011;75307;53.836;10.476;2024-02-15T02:51:49;22.58;;;6.72;;
84989;SDS011;75307;53.836;10.476;2024-02-15T02:53:51;23.50;;;6.30;;
84989;SDS011;75307;53.836;10.476;2024-02-15T02:55:53;23.80;;;7.40;;
84989;SDS011;75307;53.836;10.476;2024-02-15T02:57:58;23.00;;;7.18;;
84989;SDS011;75307;53.836;10.476;2024-02-15T02:59:59;21.80;;;7.13;;
84989;SDS011;75307;53.836;10.476;2024-02-15T03:02:01;21.17;;;7.80;;
84989;SDS011;75307;53.836;10.476;2024-02-15T03:04:03;22.92;;;7.15;;
84989;SDS011;75307;53.836;10.476;2024-02-15T03:06:05;25.13;;;7.38;;
84989;SDS011;75307;53.836;10.476;2024-02-15T03:08:08;21.75;;;5.78;;
84989;SDS011;75307;53.836;10.476;2024-02-15T03:10:09;18.35;;;6.32;;
84989;SDS011;75307;53.836;10.476;2024-02-15T03:12:13;23.27;;;6.90;;
84989;SDS011;75307;53.836;10.476;2024-02-15T03:14:19;20.52;;;6.65;;
84989;SDS011;75307;53.836;10.476;2024-02-15T03:16:21;18.88;;;6.25;;
84989;SDS011;75307;53.836;10.476;2024-02-15T03:18:24;24.38;;;7.22;;
84989;SDS011;75307;53.836;10.476;2024-02-15T03:20:26;20.75;;;7.40;;
84989;SDS011;75307;53.836;10.476;2024-02-15T03:22:28;21.00;;;6.85;;
84989;SDS011;75307;53.836;10.476;2024-02-15T03:24:30;20.65;;;7.25;;
84989;SDS011;75307;53.836;10.476;2024-02-15T03:26:32;21.15;;;7.78;;
84989;SDS011;75307;53.836;10.476;2024-02-15T03:28:38;21.00;;;6.55;;
84989;SDS011;75307;53.836;10.476;2024-02-15T03:30:41;21.77;;;7.35;;
84989;SDS011;75307;53.836;10.476;2024-02-15T03:32:44;22.88;;;7.63;;
84989;SDS011;75307;53.836;10.476;2024-02-15T03:34:46;22.15;;;7.50;;
84989;SDS011;75307;53.836;10.476;2024-02-15T03:36:48;21.80;;;7.78;;
84989;SDS011;75307;53.836;10.476;2024-02-15T03:38:53;23.60;;;8.23;;
84989;SDS011;75307;53.836;10.476;2024-02-15T03:40:55;20.02;;;7.72;;
84989;SDS011;75307;53.836;10.476;2024-02-15T03:42:57;22.98;;;7.95;;
84989;SDS011;75307;53.836;10.476;2024-02-15T03:44:59;24.58;;;8.00;;
84989;SDS011;75307;53.836;10.476;2024-02-15T03:47:02;26.10;;;8.45;;
84989;SDS011;75307;53.836;10.476;2024-02-15T03:49:05;22.33;;;6.65;;
84989;SDS011;75307;53.836;10.476;2024-02-15T03:51:08;23.55;;;6.47;;
84989;SDS011;75307;53.836;10.476;2024-02-15T03:53:09;20.25;;;7.00;;
84989;SDS011;75307;53.836;10.476;2024-02-15T03:55:12;24.20;;;9.27;;
84989;SDS011;75307;53.836;10.476;2024-02-15T03:57:14;22.83;;;7.95;;
84989;SDS011;75307;53.836;10.476;2024-02-15T03:59:17;23.65;;;8.05;;
84989;SDS011;75307;53.836;10.476;2024-02-15T04:01:21;25.00;;;8.65;;
84989;SDS011;75307;53.836;10.476;2024-02-15T04:03:24;24.90;;;7.90;;
84989;SDS011;75307;53.836;10.476;2024-02-15T04:05:26;27.75;;;7.95;;
84989;SDS011;75307;53.836;10.476;2024-02-15T04:07:29;19.77;;;7.22;;
84989;SDS011;75307;53.836;10.476;2024-02-15T04:09:30;26.63;;;9.45;;
84989;SDS011;75307;53.836;10.476;2024-02-15T04:11:31;24.58;;;6.72;;
84989;SDS011;75307;53.836;10.476;2024-02-15T04:13:33;18.33;;;7.38;;
84989;SDS011;75307;53.836;10.476;2024-02-15T04:15:35;21.58;;;7.63;;
84989;SDS011;75307;53.836;10.476;2024-02-15T04:17:37;20.98;;;7.05;;
84989;SDS011;75307;53.836;10.476;2024-02-15T04:19:40;18.95;;;7.07;;
84989;SDS011;75307;53.836;10.476;2024-02-15T04:21:42;21.27;;;7.75;;
84989;SDS011;75307;53.836;10.476;2024-02-15T04:23:44;22.13;;;7.15;;
84989;SDS011;75307;53.836;10.476;2024-02-15T04:25:46;19.67;;;7.22;;
84989;SDS011;75307;53.836;10.476;2024-02-15T04:27:51;21.08;;;6.53;;
84989;SDS011;75307;53.836;10.476;2024-02-15T04:29:52;23.17;;;7.18;;
84989;SDS011;75307;53.836;10.476;2024-02-15T04:31:54;21.60;;;8.13;;
84989;SDS011;75307;53.836;10.476;2024-02-15T04:33:56;20.40;;;5.78;;
84989;SDS011;75307;53.836;10.476;2024-02-15T04:36:00;24.15;;;7.72;;
84989;SDS011;75307;53.836;10.476;2024-02-15T04:38:04;20.60;;;7.18;;
84989;SDS011;75307;53.836;10.476;2024-02-15T04:40:08;27.58;;;7.40;;
84989;SDS011;75307;53.836;10.476;2024-02-15T04:42:10;22.95;;;6.55;;
84989;SDS011;75307;53.836;10.476;2024-02-15T04:44:12;25.23;;;7.72;;
84989;SDS011;75307;53.836;10.476;2024-02-15T04:46:16;25.10;;;6.65;;
84989;SDS011;75307;53.836;10.476;2024-02-15T04:48:18;23.80;;;8.35;;
84989;SDS011;75307;53.836;10.476;2024-02-15T04:50:20;22.98;;;8.05;;
84989;SDS011;75307;53.836;10.476;2024-02-15T04:52:22;27.15;;;8.75;;
84989;SDS011;75307;53.836;10.476;2024-02-15T04:54:24;25.58;;;7.05;;
84989;SDS011;75307;53.836;10.476;2024-02-15T04:56:26;29.30;;;7.82;;
84989;SDS011;75307;53.836;10.476;2024-02-15T04:58:28;26.27;;;8.73;;
84989;SDS011;75307;53.836;10.476;2024-02-15T05:00:30;21.77;;;7.65;;
84989;SDS011;75307;53.836;10.476;2024-02-15T05:02:31;28.98;;;8.18;;
84989;SDS011;75307;53.836;10.476;2024-02-15T05:04:32;24.02;;;6.97;;
84989;SDS011;75307;53.836;10.476;2024-02-15T05:06:36;25.50;;;7.93;;
84989;SDS011;75307;53.836;10.476;2024-02-15T05:08:39;24.92;;;8.07;;
84989;SDS011;75307;53.836;10.476;2024-02-15T05:10:42;26.92;;;8.43;;
84989;SDS011;75307;53.836;10.476;2024-02-15T05:12:43;25.60;;;7.90;;
84989;SDS011;75307;53.836;10.476;2024-02-15T05:14:48;27.92;;;9.82;;
84989;SDS011;75307;53.836;10.476;2024-02-15T05:16:49;31.33;;;9.15;;
84989;SDS011;75307;53.836;10.476;2024-02-15T05:18:50;29.55;;;9.88;;
84989;SDS011;75307;53.836;10.476;2024-02-15T05:20:53;33.17;;;10.73;;
84989;SDS011;75307;53.836;10.476;2024-02-15T05:22:55;36.35;;;10.05;;
84989;SDS011;75307;53.836;10.476;2024-02-15T05:24:58;32.63;;;10.32;;
84989;SDS011;75307;53.836;10.476;2024-02-15T05:26:58;36.88;;;11.93;;
84989;SDS011;75307;53.836;10.476;2024-02-15T05:29:01;29.52;;;9.43;;
84989;SDS011;75307;53.836;10.476;2024-02-15T05:31:08;31.92;;;9.77;;
84989;SDS011;75307;53.836;10.476;2024-02-15T05:33:16;38.22;;;10.13;;
84989;SDS011;75307;53.836;10.476;2024-02-15T05:35:18;34.35;;;10.35;;
84989;SDS011;75307;53.836;10.476;2024-02-15T05:37:20;31.80;;;10.02;;
84989;SDS011;75307;53.836;10.476;2024-02-15T05:39:23;33.45;;;9.75;;
84989;SDS011;75307;53.836;10.476;2024-02-15T05:41:26;34.90;;;10.55;;
84989;SDS011;75307;53.836;10.476;2024-02-15T05:43:28;31.15;;;9.60;;
84989;SDS011;75307;53.836;10.476;2024-02-15T05:45:30;34.92;;;10.57;;
84989;SDS011;75307;53.836;10.476;2024-02-15T05:47:36;38.30;;;9.43;;
84989;SDS011;75307;53.836;10.476;2024-02-15T05:49:39;37.08;;;10.70;;
84989;SDS011;75307;53.836;10.476;2024-02-15T05:51:41;31.92;;;9.13;;
84989;SDS011;75307;53.836;10.476;2024-02-15T05:53:43;33.42;;;10.65;;
84989;SDS011;75307;53.836;10.476;2024-02-15T05:55:45;31.88;;;10.35;;
84989;SDS011;75307;53.836;10.476;2024-02-15T05:57:51;30.58;;;10.63;;
84989;SDS011;75307;53.836;10.476;2024-02-15T05:59:53;30.85;;;8.27;;
84989;SDS011;75307;53.836;10.476;2024-02-15T06:01:54;30.38;;;9.10;;
84989;SDS011;75307;53.836;10.476;2024-02-15T06:03:56;33.92;;;9.70;;
84989;SDS011;75307;53.836;10.476;2024-02-15T06:05:58;30.15;;;9.77;;
84989;SDS011;75307;53.836;10.476;2024-02-15T06:08:02;30.02;;;9.40;;
84989;SDS011;75307;53.836;10.476;2024-02-15T06:10:05;29.88;;;9.07;;
84989;SDS011;75307;53.836;10.476;2024-02-15T06:12:07;31.58;;;9.00;;
84989;SDS011;75307;53.836;10.476;2024-02-15T06:14:11;35.42;;;9.75;;
84989;SDS011;75307;53.836;10.476;2024-02-15T06:16:12;33.08;;;9.63;;
84989;SDS011;75307;53.836;10.476;2024-02-15T06:18:14;29.05;;;9.45;;
84989;SDS011;75307;53.836;10.476;2024-02-15T06:20:21;27.75;;;8.98;;
84989;SDS011;75307;53.836;10.476;2024-02-15T06:22:23;31.65;;;9.25;;
84989;SDS011;75307;53.836;10.476;2024-02-15T06:24:26;29.20;;;9.20;;
84989;SDS011;75307;53.836;10.476;2024-02-15T06:26:28;29.15;;;8.68;;
84989;SDS011;75307;53.836;10.476;2024-02-15T06:28:30;29.58;;;9.10;;
84989;SDS011;75307;53.836;10.476;2024-02-15T06:30:50;33.00;;;8.73;;
84989;SDS011;75307;53.836;10.476;2024-02-15T06:33:10;28.58;;;7.78;;
84989;SDS011;75307;53.836;10.476;2024-02-15T06:35:29;30.00;;;10.25;;
84989;SDS011;75307;53.836;10.476;2024-02-15T06:37:48;27.92;;;9.90;;
84989;SDS011;75307;53.836;10.476;2024-02-15T06:40:08;25.85;;;9.20;;
84989;SDS011;75307;53.836;10.476;2024-02-15T06:42:11;29.73;;;9.32;;
84989;SDS011;75307;53.836;10.476;2024-02-15T06:44:16;30.65;;;8.90;;
84989;SDS011;75307;53.836;10.476;2024-02-15T06:46:19;25.88;;;8.05;;
84989;SDS011;75307;53.836;10.476;2024-02-15T06:48:20;29.08;;;9.52;;
84989;SDS011;75307;53.836;10.476;2024-02-15T06:50:21;28.60;;;9.52;;
84989;SDS011;75307;53.836;10.476;2024-02-15T06:52:23;28.77;;;10.05;;
84989;SDS011;75307;53.836;10.476;2024-02-15T06:54:25;25.00;;;9.35;;
84989;SDS011;75307;53.836;10.476;2024-02-15T06:56:25;29.95;;;8.85;;
84989;SDS011;75307;53.836;10.476;2024-02-15T06:58:27;28.13;;;8.45;;
84989;SDS011;75307;53.836;10.476;2024-02-15T07:00:29;28.10;;;9.13;;
84989;SDS011;75307;53.836;10.476;2024-02-15T07:02:32;29.20;;;9.00;;
84989;SDS011;75307;53.836;10.476;2024-02-15T07:04:34;28.65;;;9.88;;
84989;SDS011;75307;53.836;10.476;2024-02-15T07:06:37;35.15;;;9.15;;
84989;SDS011;75307;53.836;10.476;2024-02-15T07:08:39;29.42;;;8.38;;
84989;SDS011;75307;53.836;10.476;2024-02-15T07:10:41;26.33;;;8.48;;
84989;SDS011;75307;53.836;10.476;2024-02-15T07:12:43;29.95;;;9.57;;
84989;SDS011;75307;53.836;10.476;2024-02-15T07:14:45;28.30;;;8.45;;
84989;SDS011;75307;53.836;10.476;2024-02-15T07:16:47;30.08;;;9.57;;
84989;SDS011;75307;53.836;10.476;2024-02-15T07:18:52;29.55;;;8.40;;
84989;SDS011;75307;53.836;10.476;2024-02-15T07:20:54;37.45;;;9.73;;
84989;SDS011;75307;53.836;10.476;2024-02-15T07:22:57;29.33;;;8.90;;
84989;SDS011;75307;53.836;10.476;2024-02-15T07:24:59;32.42;;;9.68;;
84989;SDS011;75307;53.836;10.476;2024-02-15T07:27:01;29.05;;;8.63;;
84989;SDS011;75307;53.836;10.476;2024-02-15T07:29:02;33.38;;;10.13;;
84989;SDS011;75307;53.836;10.476;2024-02-15T07:31:06;24.27;;;9.23;;
84989;SDS011;75307;53.836;10.476;2024-02-15T07:33:07;29.15;;;9.23;;
84989;SDS011;75307;53.836;10.476;2024-02-15T07:35:10;28.58;;;9.10;;
84989;SDS011;75307;53.836;10.476;2024-02-15T07:37:12;30.98;;;9.73;;
84989;SDS011;75307;53.836;10.476;2024-02-15T07:39:16;26.70;;;8.10;;
84989;SDS011;75307;53.836;10.476;2024-02-15T07:41:23;27.33;;;9.10;;
84989;SDS011;75307;53.836;10.476;2024-02-15T07:43:25;30.60;;;8.65;;
84989;SDS011;75307;53.836;10.476;2024-02-15T07:45:26;32.10;;;9.20;;
84989;SDS011;75307;53.836;10.476;2024-02-15T07:47:28;29.52;;;8.38;;
84989;SDS011;75307;53.836;10.476;2024-02-15T07:49:30;32.38;;;9.98;;
84989;SDS011;75307;53.836;10.476;2024-02-15T07:51:35;28.67;;;9.93;;
84989;SDS011;75307;53.836;10.476;2024-02-15T07:53:37;34.03;;;11.45;;
84989;SDS011;75307;53.836;10.476;2024-02-15T07:55:38;30.90;;;9.15;;
84989;SDS011;75307;53.836;10.476;2024-02-15T07:57:42;30.80;;;9.02;;
84989;SDS011;75307;53.836;10.476;2024-02-15T07:59:42;34.17;;;9.77;;
84989;SDS011;75307;53.836;10.476;2024-02-15T08:01:45;32.08;;;10.45;;
84989;SDS011;75307;53.836;10.476;2024-02-15T08:03:48;38.50;;;10.57;;
84989;SDS011;75307;53.836;10.476;2024-02-15T08:05:50;32.95;;;10.57;;
84989;SDS011;75307;53.836;10.476;2024-02-15T08:07:53;30.77;;;10.20;;
84989;SDS011;75307;53.836;10.476;2024-02-15T08:09:57;33.13;;;10.80;;
84989;SDS011;75307;53.836;10.476;2024-02-15T08:12:00;32.58;;;10.93;;
84989;SDS011;75307;53.836;10.476;2024-02-15T08:14:03;34.55;;;11.00;;
84989;SDS011;75307;53.836;10.476;2024-02-15T08:16:08;32.85;;;11.38;;
84989;SDS011;75307;53.836;10.476;2024-02-15T08:18:11;40.55;;;11.40;;
84989;SDS011;75307;53.836;10.476;2024-02-15T08:20:14;35.13;;;10.98;;
84989;SDS011;75307;53.836;10.476;2024-02-15T08:22:17;35.08;;;11.27;;
84989;SDS011;75307;53.836;10.476;2024-02-15T08:24:25;41.20;;;11.57;;
84989;SDS011;75307;53.836;10.476;2024-02-15T08:26:26;46.92;;;12.65;;
84989;SDS011;75307;53.836;10.476;2024-02-15T08:28:30;50.45;;;12.88;;
84989;SDS011;75307;53.836;10.476;2024-02-15T08:30:31;41.55;;;12.75;;
84989;SDS011;75307;53.836;10.476;2024-02-15T08:32:33;37.78;;;13.00;;
84989;SDS011;75307;53.836;10.476;2024-02-15T08:34:35;40.90;;;13.60;;
84989;SDS011;75307;53.836;10.476;2024-02-15T08:36:36;37.88;;;12.57;;
84989;SDS011;75307;53.836;10.476;2024-02-15T08:38:40;39.08;;;11.98;;
84989;SDS011;75307;53.836;10.476;2024-02-15T08:40:43;38.80;;;12.02;;
84989;SDS011;75307;53.836;10.476;2024-02-15T08:42:45;37.38;;;11.55;;
84989;SDS011;75307;53.836;10.476;2024-02-15T08:44:47;42.20;;;12.57;;
84989;SDS011;75307;53.836;10.476;2024-02-15T08:46:49;33.63;;;10.75;;
84989;SDS011;75307;53.836;10.476;2024-02-15T08:48:51;37.58;;;12.75;;
84989;SDS011;75307;53.836;10.476;2024-02-15T08:50:53;30.38;;;10.52;;
84989;SDS011;75307;53.836;10.476;2024-02-15T08:52:54;34.70;;;11.13;;
84989;SDS011;75307;53.836;10.476;2024-02-15T08:54:56;31.65;;;10.38;;
84989;SDS011;75307;53.836;10.476;2024-02-15T08:57:00;36.15;;;10.27;;
84989;SDS011;75307;53.836;10.476;2024-02-15T08:59:03;28.55;;;10.15;;
84989;SDS011;75307;53.836;10.476;2024-02-15T09:01:05;29.88;;;9.60;;
84989;SDS011;75307;53.836;10.476;2024-02-15T09:03:07;27.02;;;10.05;;
84989;SDS011;75307;53.836;10.476;2024-02-15T09:05:09;22.23;;;8.60;;
84989;SDS011;75307;53.836;10.476;2024-02-15T09:07:14;28.55;;;10.27;;
84989;SDS011;75307;53.836;10.476;2024-02-15T09:09:16;26.20;;;8.48;;
84989;SDS011;75307;53.836;10.476;2024-02-15T09:11:17;28.77;;;10.20;;
84989;SDS011;75307;53.836;10.476;2024-02-15T09:13:20;26.17;;;9.18;;
84989;SDS011;75307;53.836;10.476;2024-02-15T09:15:22;26.42;;;8.95;;
84989;SDS011;75307;53.836;10.476;2024-02-15T09:17:25;24.92;;;9.18;;
84989;SDS011;75307;53.836;10.476;2024-02-15T09:19:27;22.10;;;8.43;;
84989;SDS011;75307;53.836;10.476;2024-02-15T09:21:28;24.38;;;9.68;;
84989;SDS011;75307;53.836;10.476;2024-02-15T09:23:30;19.80;;;7.72;;
84989;SDS011;75307;53.836;10.476;2024-02-15T09:25:31;24.17;;;8.52;;
84989;SDS011;75307;53.836;10.476;2024-02-15T09:27:33;24.02;;;8.25;;
84989;SDS011;75307;53.836;10.476;2024-02-15T09:29:35;25.17;;;8.73;;
84989;SDS011;75307;53.836;10.476;2024-02-15T09:31:39;23.75;;;7.97;;
84989;SDS011;75307;53.836;10.476;2024-02-15T09:33:40;25.92;;;8.10;;
84989;SDS011;75307;53.836;10.476;2024-02-15T09:35:42;22.95;;;8.63;;
84989;SDS011;75307;53.836;10.476;2024-02-15T09:37:43;27.00;;;9.18;;
84989;SDS011;75307;53.836;10.476;2024-02-15T09:39:46;20.90;;;7.50;;
84989;SDS011;75307;53.836;10.476;2024-02-15T09:41:47;23.90;;;9.23;;
84989;SDS011;75307;53.836;10.476;2024-02-15T09:43:55;23.90;;;9.20;;
84989;SDS011;75307;53.836;10.476;2024-02-15T09:46:00;21.77;;;7.43;;
84989;SDS011;75307;53.836;10.476;2024-02-15T09:48:05;25.48;;;8.57;;
84989;SDS011;75307;53.836;10.476;2024-02-15T09:50:09;22.45;;;7.65;;
84989;SDS011;75307;53.836;10.476;2024-02-15T09:52:13;25.05;;;8.68;;
84989;SDS011;75307;53.836;10.476;2024-02-15T09:54:18;23.23;;;7.93;;
84989;SDS011;75307;53.836;10.476;2024-02-15T09:56:22;24.83;;;8.57;;
84989;SDS011;75307;53.836;10.476;2024-02-15T09:58:25;28.27;;;9.93;;
84989;SDS011;75307;53.836;10.476;2024-02-15T10:00:26;29.30;;;9.43;;
84989;SDS011;75307;53.836;10.476;2024-02-15T10:02:29;27.17;;;9.80;;
84989;SDS011;75307;53.836;10.476;2024-02-15T10:04:33;26.40;;;10.23;;
84989;SDS011;75307;53.836;10.476;2024-02-15T10:06:35;29.40;;;9.38;;
84989;SDS011;75307;53.836;10.476;2024-02-15T10:08:37;30.42;;;9.82;;
84989;SDS011;75307;53.836;10.476;2024-02-15T10:10:39;29.13;;;9.43;;
84989;SDS011;75307;53.836;10.476;2024-02-15T10:12:41;24.73;;;8.80;;
84989;SDS011;75307;53.836;10.476;2024-02-15T10:14:47;28.63;;;10.02;;
84989;SDS011;75307;53.836;10.476;2024-02-15T10:16:51;25.25;;;9.20;;
84989;SDS011;75307;53.836;10.476;2024-02-15T10:18:55;26.38;;;9.85;;
84989;SDS011;75307;53.836;10.476;2024-02-15T10:21:10;25.60;;;9.70;;
84989;SDS011;75307;53.836;10.476;2024-02-15T10:23:24;29.00;;;10.50;;
84989;SDS011;75307;53.836;10.476;2024-02-15T10:25:26;27.88;;;10.95;;
84989;SDS011;75307;53.836;10.476;2024-02-15T10:27:29;24.70;;;9.40;;
84989;SDS011;75307;53.836;10.476;2024-02-15T10:29:37;25.52;;;8.82;;
84989;SDS011;75307;53.836;10.476;2024-02-15T10:31:51;24.42;;;8.57;;
84989;SDS011;75307;53.836;10.476;2024-02-15T10:33:59;24.55;;;9.55;;
84989;SDS011;75307;53.836;10.476;2024-02-15T10:36:07;26.08;;;9.73;;
84989;SDS011;75307;53.836;10.476;2024-02-15T10:40:13;20.52;;;8.50;;
84989;SDS011;75307;53.836;10.476;2024-02-15T10:42:17;23.17;;;9.05;;
84989;SDS011;75307;53.836;10.476;2024-02-15T10:44:20;21.10;;;9.02;;
84989;SDS011;75307;53.836;10.476;2024-02-15T10:46:23;19.55;;;8.60;;
84989;SDS011;75307;53.836;10.476;2024-02-15T10:48:24;21.88;;;9.18;;
84989;SDS011;75307;53.836;10.476;2024-02-15T10:50:27;22.17;;;9.68;;
84989;SDS011;75307;53.836;10.476;2024-02-15T10:52:30;21.52;;;8.43;;
84989;SDS011;75307;53.836;10.476;2024-02-15T10:54:40;20.83;;;8.38;;
84989;SDS011;75307;53.836;10.476;2024-02-15T10:56:43;22.73;;;8.88;;
84989;SDS011;75307;53.836;10.476;2024-02-15T10:58:49;22.38;;;8.23;;
84989;SDS011;75307;53.836;10.476;2024-02-15T11:00:55;24.40;;;8.65;;
84989;SDS011;75307;53.836;10.476;2024-02-15T11:03:00;24.90;;;8.30;;
84989;SDS011;75307;53.836;10.476;2024-02-15T11:05:05;22.20;;;9.13;;
84989;SDS011;75307;53.836;10.476;2024-02-15T11:07:11;18.98;;;8.02;;
84989;SDS011;75307;53.836;10.476;2024-02-15T11:09:14;22.95;;;8.40;;
84989;SDS011;75307;53.836;10.476;2024-02-15T11:11:16;22.20;;;8.52;;
84989;SDS011;75307;53.836;10.476;2024-02-15T11:13:18;21.42;;;8.05;;
84989;SDS011;75307;53.836;10.476;2024-02-15T11:15:39;19.85;;;8.75;;
84989;SDS011;75307;53.836;10.476;2024-02-15T11:17:46;18.10;;;8.15;;
84989;SDS011;75307;53.836;10.476;2024-02-15T11:19:56;17.50;;;7.07;;
84989;SDS011;75307;53.836;10.476;2024-02-15T11:21:58;20.52;;;8.90;;
84989;SDS011;75307;53.836;10.476;2024-02-15T11:26:44;17.80;;;7.22;;
84989;SDS011;75307;53.836;10.476;2024-02-15T11:28:48;16.98;;;7.38;;
84989;SDS011;75307;53.836;10.476;2024-02-15T11:30:50;16.55;;;6.65;;
84989;SDS011;75307;53.836;10.476;2024-02-15T11:32:52;16.08;;;6.63;;
84989;SDS011;75307;53.836;10.476;2024-02-15T11:35:01;15.32;;;6.95;;
84989;SDS011;75307;53.836;10.476;2024-02-15T11:37:09;15.18;;;6.85;;
84989;SDS011;75307;53.836;10.476;2024-02-15T11:41:44;14.07;;;6.63;;
84989;SDS011;75307;53.836;10.476;2024-02-15T11:44:37;12.77;;;5.85;;
84989;SDS011;75307;53.836;10.476;2024-02-15T11:46:39;15.10;;;6.55;;
84989;SDS011;75307;53.836;10.476;2024-02-15T11:48:41;14.40;;;7.10;;
84989;SDS011;75307;53.836;10.476;2024-02-15T11:50:42;14.75;;;7.30;;
84989;SDS011;75307;53.836;10.476;2024-02-15T11:52:45;16.70;;;7.82;;
84989;SDS011;75307;53.836;10.476;2024-02-15T11:54:47;17.55;;;7.70;;
84989;SDS011;75307;53.836;10.476;2024-02-15T11:56:50;18.52;;;6.93;;
84989;SDS011;75307;53.836;10.476;2024-02-15T11:59:10;17.08;;;7.80;;
84989;SDS011;75307;53.836;10.476;2024-02-15T12:01:18;17.63;;;7.63;;
84989;SDS011;75307;53.836;10.476;2024-02-15T12:03:38;17.23;;;7.18;;
84989;SDS011;75307;53.836;10.476;2024-02-15T12:05:57;16.50;;;8.55;;